| time (UTC) | temp F | wind direction | speed MPH | gust MPH | rain 1hr in | rain 24hr in | rain mn in | humidity % | barometer mb |
| 20260509005004 | 47 | 111 | 2.0 | 3.0 | 0.00 | 0.00 | 0.00 | 85 | 1018.8 |
| 20260509004504 | 47 | 80 | 2.0 | 3.0 | 0.00 | 0.00 | 0.00 | 84 | 1018.8 |
| 20260509004004 | 48 | 78 | 4.0 | 8.0 | 0.00 | 0.00 | 0.00 | 84 | 1018.7 |
| 20260509003504 | 48 | 76 | 5.0 | 9.0 | 0.00 | 0.00 | 0.00 | 85 | 1018.8 |
| 20260509003004 | 48 | 85 | 1.0 | 2.0 | 0.00 | 0.00 | 0.00 | 84 | 1018.8 |
| 20260509002504 | 48 | 85 | 1.0 | 2.0 | 0.00 | 0.00 | 0.00 | 84 | 1018.8 |
| 20260509002004 | 48 | 86 | 1.0 | 2.0 | 0.00 | 0.00 | 0.00 | 84 | 1018.8 |
| 20260509001004 | 48 | 13 | 1.0 | 3.0 | 0.00 | 0.00 | 0.00 | 84 | 1018.9 |
| 20260509000504 | 48 | 21 | 2.0 | 3.0 | 0.00 | 0.00 | 0.00 | 84 | 1018.9 |
| 20260509000005 | 48 | 82 | 2.0 | 6.0 | 0.00 | 0.00 | 0.00 | 84 | 1018.9 |
| 20260508235504 | 48 | 123 | 2.0 | 3.0 | 0.00 | 0.00 | 0.00 | 84 | 1018.8 |
| 20260508235004 | 48 | 75 | 1.0 | 3.0 | 0.00 | 0.00 | 0.00 | 84 | 1018.9 |
| 20260508234004 | 48 | 17 | 1.0 | 3.0 | 0.00 | 0.00 | 0.00 | 84 | 1018.9 |
| 20260508233504 | 48 | 17 | 2.0 | 3.0 | 0.00 | 0.00 | 0.00 | 83 | 1018.9 |
| 20260508233004 | 48 | 24 | 0.0 | 3.0 | 0.00 | 0.00 | 0.00 | 83 | 1019.0 |
| 20260508232504 | 48 | 48 | 2.0 | 5.0 | 0.00 | 0.00 | 0.00 | 83 | 1018.9 |
| 20260508232004 | 48 | 59 | 0.0 | 2.0 | 0.00 | 0.00 | 0.00 | 83 | 1018.9 |
| 20260508231504 | 48 | 63 | 1.0 | 6.0 | 0.00 | 0.00 | 0.00 | 83 | 1019.0 |
| 20260508231005 | 48 | 53 | 1.0 | 3.0 | 0.00 | 0.00 | 0.00 | 83 | 1019.0 |
| 20260508230504 | 48 | 111 | 0.0 | 3.0 | 0.00 | 0.00 | 0.00 | 82 | 1019.1 |
| 20260508230005 | 48 | 50 | 0.0 | 2.0 | 0.00 | 0.00 | 0.00 | 82 | 1019.0 |
| 20260508225504 | 48 | 74 | 1.0 | 3.0 | 0.00 | 0.00 | 0.00 | 81 | 1019.0 |
| 20260508225004 | 48 | 21 | 2.0 | 3.0 | 0.00 | 0.00 | 0.00 | 81 | 1019.1 |
| 20260508224504 | 49 | 41 | 2.0 | 3.0 | 0.00 | 0.00 | 0.00 | 81 | 1019.1 |
| 20260508224004 | 49 | 64 | 0.0 | 3.0 | 0.00 | 0.00 | 0.00 | 81 | 1019.1 |
| 20260508223504 | 48 | 61 | 2.0 | 3.0 | 0.00 | 0.00 | 0.00 | 81 | 1019.1 |
| 20260508223004 | 48 | 44 | 1.0 | 3.0 | 0.00 | 0.00 | 0.00 | 81 | 1019.0 |
| 20260508222504 | 49 | 39 | 0.0 | 2.0 | 0.00 | 0.00 | 0.00 | 81 | 1019.0 |
| 20260508222005 | 49 | 38 | 0.0 | 3.0 | 0.00 | 0.00 | 0.00 | 81 | 1019.0 |
| 20260508221004 | 49 | 355 | 0.0 | 3.0 | 0.00 | 0.00 | 0.00 | 81 | 1019.0 |
| 20260508220505 | 49 | 26 | 1.0 | 3.0 | 0.00 | 0.00 | 0.00 | 81 | 1018.9 |
| 20260508220008 | 49 | 17 | 0.0 | 0.0 | 0.00 | 0.00 | 0.00 | 80 | 1018.8 |
| 20260508215504 | 48 | 319 | 0.0 | 0.0 | 0.00 | 0.00 | 0.00 | 83 | 1018.9 |
| 20260508215004 | 48 | 319 | 0.0 | 1.0 | 0.00 | 0.00 | 0.00 | 83 | 1018.8 |
| 20260508214504 | 49 | 319 | 0.0 | 2.0 | 0.00 | 0.00 | 0.00 | 81 | 1018.8 |
| 20260508214004 | 49 | 282 | 1.0 | 2.0 | 0.00 | 0.00 | 0.00 | 81 | 1018.8 |
| 20260508213005 | 49 | 281 | 0.0 | 2.0 | 0.00 | 0.00 | 0.00 | 81 | 1018.9 |
| 20260508212004 | 47 | 281 | 0.0 | 1.0 | 0.00 | 0.00 | 0.00 | 83 | 1018.9 |
| 20260508211504 | 47 | 282 | 1.0 | 2.0 | 0.00 | 0.00 | 0.00 | 84 | 1018.7 |
| 20260508211004 | 47 | 282 | 0.0 | 2.0 | 0.00 | 0.00 | 0.00 | 83 | 1018.7 |
| 20260508210504 | 48 | 282 | 1.0 | 2.0 | 0.00 | 0.00 | 0.00 | 82 | 1018.8 |
| 20260508210005 | 47 | 282 | 1.0 | 2.0 | 0.00 | 0.00 | 0.00 | 84 | 1018.8 |
| 20260508205504 | 47 | 281 | 1.0 | 2.0 | 0.00 | 0.00 | 0.00 | 83 | 1018.8 |
| 20260508205004 | 47 | 281 | 1.0 | 2.0 | 0.00 | 0.00 | 0.00 | 82 | 1018.8 |
| 20260508204504 | 48 | 281 | 2.0 | 3.0 | 0.00 | 0.00 | 0.00 | 81 | 1018.8 |
| 20260508204004 | 48 | 285 | 2.0 | 3.0 | 0.00 | 0.00 | 0.00 | 82 | 1018.7 |
| 20260508203504 | 47 | 289 | 2.0 | 2.0 | 0.00 | 0.00 | 0.00 | 82 | 1018.7 |
| 20260508203005 | 48 | 289 | 1.0 | 3.0 | 0.00 | 0.00 | 0.00 | 81 | 1018.7 |
| 20260508202504 | 48 | 302 | 2.0 | 3.0 | 0.00 | 0.00 | 0.00 | 80 | 1018.6 |
| 20260508202004 | 49 | 315 | 2.0 | 2.0 | 0.00 | 0.00 | 0.00 | 79 | 1018.6 |
| 20260508201504 | 49 | 321 | 1.0 | 2.0 | 0.00 | 0.00 | 0.00 | 79 | 1018.5 |
| 20260508200504 | 49 | 0 | 1.0 | 2.0 | 0.00 | 0.00 | 0.00 | 80 | 1018.6 |
| 20260508200005 | 48 | 9 | 1.0 | 2.0 | 0.00 | 0.00 | 0.00 | 81 | 1018.5 |
| 20260508195503 | 48 | 9 | 0.0 | 2.0 | 0.00 | 0.00 | 0.00 | 80 | 1018.5 |
| 20260508195004 | 49 | 9 | 1.0 | 1.0 | 0.00 | 0.00 | 0.00 | 79 | 1018.4 |
| 20260508194504 | 49 | 9 | 0.0 | 1.0 | 0.00 | 0.00 | 0.00 | 79 | 1018.3 |
| 20260508194004 | 50 | 9 | 1.0 | 2.0 | 0.00 | 0.00 | 0.00 | 77 | 1018.2 |
| 20260508193504 | 50 | 5 | 1.0 | 2.0 | 0.00 | 0.00 | 0.00 | 77 | 1018.2 |
| 20260508192004 | 49 | 5 | 0.0 | 2.0 | 0.00 | 0.00 | 0.00 | 78 | 1018.0 |
| 20260508191504 | 50 | 5 | 1.0 | 2.0 | 0.00 | 0.00 | 0.00 | 77 | 1017.9 |
| 20260508191004 | 51 | 5 | 1.0 | 2.0 | 0.00 | 0.00 | 0.00 | 75 | 1017.9 |
| 20260508190504 | 51 | 9 | 1.0 | 3.0 | 0.00 | 0.00 | 0.00 | 75 | 1017.9 |
| 20260508190005 | 52 | 29 | 1.0 | 3.0 | 0.00 | 0.00 | 0.00 | 74 | 1017.8 |
| 20260508185504 | 52 | 29 | 1.0 | 3.0 | 0.00 | 0.00 | 0.00 | 74 | 1017.6 |
| 20260508185004 | 52 | 23 | 2.0 | 3.0 | 0.00 | 0.00 | 0.00 | 75 | 1017.6 |
| 20260508184504 | 52 | 28 | 1.0 | 2.0 | 0.00 | 0.00 | 0.00 | 75 | 1017.5 |
| 20260508184004 | 52 | 40 | 0.0 | 0.0 | 0.00 | 0.00 | 0.00 | 75 | 1017.5 |
| 20260508183504 | 53 | 40 | 0.0 | 2.0 | 0.00 | 0.00 | 0.00 | 73 | 1017.5 |
| 20260508183004 | 53 | 40 | 1.0 | 2.0 | 0.00 | 0.00 | 0.00 | 74 | 1017.4 |
| 20260508182504 | 53 | 41 | 0.0 | 2.0 | 0.00 | 0.00 | 0.00 | 74 | 1017.4 |
| 20260508182004 | 53 | 41 | 1.0 | 2.0 | 0.00 | 0.00 | 0.00 | 73 | 1017.4 |
| 20260508181504 | 54 | 41 | 0.0 | 2.0 | 0.00 | 0.00 | 0.00 | 71 | 1017.3 |
| 20260508181004 | 54 | 40 | 1.0 | 2.0 | 0.00 | 0.00 | 0.00 | 71 | 1017.3 |
| 20260508180507 | 54 | 40 | 1.0 | 3.0 | 0.00 | 0.00 | 0.00 | 71 | 1017.2 |
| 20260508180005 | 55 | 17 | 1.0 | 2.0 | 0.00 | 0.00 | 0.00 | 70 | 1017.3 |
| 20260508174503 | 56 | 39 | 3.0 | 5.0 | 0.00 | 0.00 | 0.00 | 67 | 1017.0 |
| 20260508174004 | 57 | 25 | 3.0 | 7.0 | 0.00 | 0.00 | 0.00 | 66 | 1017.0 |
| 20260508173503 | 57 | 49 | 5.0 | 10.0 | 0.00 | 0.00 | 0.00 | 65 | 1017.0 |
| 20260508173004 | 58 | 60 | 4.0 | 7.0 | 0.00 | 0.00 | 0.00 | 64 | 1017.0 |
| 20260508172504 | 58 | 35 | 5.0 | 10.0 | 0.00 | 0.00 | 0.00 | 65 | 1017.0 |
| 20260508172004 | 58 | 66 | 4.0 | 7.0 | 0.00 | 0.00 | 0.00 | 66 | 1017.0 |
| 20260508171504 | 58 | 46 | 3.0 | 6.0 | 0.00 | 0.00 | 0.00 | 65 | 1016.9 |
| 20260508171004 | 58 | 51 | 4.0 | 8.0 | 0.00 | 0.00 | 0.00 | 65 | 1017.0 |
| 20260508170503 | 58 | 67 | 3.0 | 7.0 | 0.00 | 0.00 | 0.00 | 65 | 1016.9 |
| 20260508165504 | 58 | 68 | 5.0 | 9.0 | 0.00 | 0.00 | 0.00 | 64 | 1016.9 |
| 20260508165004 | 58 | 31 | 5.0 | 10.0 | 0.00 | 0.00 | 0.00 | 64 | 1016.8 |
| 20260508164503 | 59 | 48 | 5.0 | 9.0 | 0.00 | 0.00 | 0.00 | 63 | 1016.8 |
| 20260508164003 | 59 | 59 | 6.0 | 12.0 | 0.00 | 0.00 | 0.00 | 63 | 1016.8 |
| 20260508163504 | 59 | 70 | 3.0 | 7.0 | 0.00 | 0.00 | 0.00 | 64 | 1016.8 |
| 20260508163004 | 59 | 45 | 6.0 | 12.0 | 0.00 | 0.00 | 0.00 | 65 | 1016.9 |
| 20260508162504 | 59 | 47 | 5.0 | 9.0 | 0.00 | 0.00 | 0.00 | 65 | 1016.9 |
| 20260508162003 | 59 | 44 | 5.0 | 9.0 | 0.00 | 0.00 | 0.00 | 65 | 1016.9 |
| 20260508161504 | 58 | 60 | 4.0 | 8.0 | 0.00 | 0.00 | 0.00 | 66 | 1016.9 |
| 20260508161004 | 59 | 37 | 4.0 | 9.0 | 0.00 | 0.00 | 0.00 | 65 | 1016.8 |
| 20260508160503 | 59 | 43 | 6.0 | 9.0 | 0.00 | 0.00 | 0.00 | 64 | 1016.9 |
| 20260508160005 | 59 | 45 | 3.0 | 5.0 | 0.00 | 0.00 | 0.00 | 63 | 1016.9 |
| 20260508155503 | 59 | 63 | 2.0 | 5.0 | 0.00 | 0.00 | 0.00 | 62 | 1016.9 |
| 20260508155004 | 59 | 70 | 1.0 | 3.0 | 0.00 | 0.00 | 0.00 | 64 | 1016.9 |
| 20260508154004 | 59 | 44 | 3.0 | 5.0 | 0.00 | 0.00 | 0.00 | 63 | 1016.8 |
| 20260508153503 | 59 | 115 | 1.0 | 6.0 | 0.00 | 0.00 | 0.00 | 62 | 1016.8 |
| 20260508153004 | 59 | 128 | 3.0 | 6.0 | 0.00 | 0.00 | 0.00 | 62 | 1016.8 |
| 20260508152504 | 59 | 124 | 3.0 | 6.0 | 0.00 | 0.00 | 0.00 | 64 | 1016.8 |
| 20260508152004 | 59 | 64 | 3.0 | 7.0 | 0.00 | 0.00 | 0.00 | 63 | 1016.9 |
| 20260508151504 | 59 | 156 | 1.0 | 3.0 | 0.00 | 0.00 | 0.00 | 60 | 1016.9 |
| 20260508151003 | 60 | 62 | 2.0 | 5.0 | 0.00 | 0.00 | 0.00 | 61 | 1017.0 |
| 20260508150504 | 59 | 84 | 1.0 | 7.0 | 0.00 | 0.00 | 0.00 | 61 | 1017.0 |
| 20260508150005 | 60 | 103 | 5.0 | 8.0 | 0.00 | 0.00 | 0.00 | 61 | 1017.0 |
| 20260508145503 | 60 | 64 | 3.0 | 7.0 | 0.00 | 0.00 | 0.00 | 63 | 1017.1 |
| 20260508145004 | 60 | 28 | 3.0 | 5.0 | 0.00 | 0.00 | 0.00 | 64 | 1017.1 |
| 20260508144504 | 59 | 0 | 2.0 | 5.0 | 0.00 | 0.00 | 0.00 | 64 | 1017.1 |
| 20260508144004 | 59 | 34 | 2.0 | 3.0 | 0.00 | 0.00 | 0.00 | 65 | 1017.2 |
| 20260508143504 | 59 | 34 | 3.0 | 3.0 | 0.00 | 0.00 | 0.00 | 64 | 1017.4 |
| 20260508142504 | 59 | 42 | 3.0 | 6.0 | 0.00 | 0.00 | 0.00 | 64 | 1017.3 |
| 20260508142004 | 59 | 32 | 3.0 | 5.0 | 0.00 | 0.00 | 0.00 | 64 | 1017.4 |
| 20260508141504 | 60 | 29 | 4.0 | 9.0 | 0.00 | 0.00 | 0.00 | 63 | 1017.4 |
| 20260508141004 | 61 | 59 | 2.0 | 8.0 | 0.00 | 0.00 | 0.00 | 64 | 1017.3 |
| 20260508140504 | 59 | 76 | 2.0 | 3.0 | 0.00 | 0.00 | 0.00 | 65 | 1017.3 |
| 20260508140005 | 59 | 172 | 2.0 | 3.0 | 0.00 | 0.00 | 0.00 | 62 | 1017.5 |
| 20260508135503 | 58 | 171 | 1.0 | 5.0 | 0.00 | 0.00 | 0.00 | 63 | 1017.5 |
| 20260508134504 | 58 | 179 | 2.0 | 3.0 | 0.00 | 0.00 | 0.00 | 62 | 1017.7 |
| 20260508134004 | 59 | 161 | 3.0 | 6.0 | 0.00 | 0.00 | 0.00 | 64 | 1017.8 |
| 20260508133503 | 59 | 96 | 1.0 | 5.0 | 0.00 | 0.00 | 0.00 | 65 | 1017.8 |
| 20260508133003 | 60 | 49 | 2.0 | 7.0 | 0.00 | 0.00 | 0.00 | 64 | 1018.0 |
| 20260508132003 | 59 | 160 | 2.0 | 7.0 | 0.00 | 0.00 | 0.00 | 64 | 1018.0 |
| 20260508131504 | 59 | 107 | 3.0 | 9.0 | 0.00 | 0.00 | 0.00 | 65 | 1018.0 |
| 20260508131004 | 58 | 126 | 2.0 | 6.0 | 0.00 | 0.00 | 0.00 | 67 | 1018.1 |
| 20260508130504 | 58 | 83 | 1.0 | 5.0 | 0.00 | 0.00 | 0.00 | 66 | 1018.0 |
| 20260508130006 | 59 | 83 | 3.0 | 5.0 | 0.00 | 0.00 | 0.00 | 66 | 1018.0 |
| 20260508125505 | 60 | 57 | 3.0 | 10.0 | 0.00 | 0.00 | 0.00 | 65 | 1017.9 |
| 20260508125005 | 60 | 76 | 5.0 | 9.0 | 0.00 | 0.00 | 0.00 | 67 | 1018.0 |
| 20260508124506 | 60 | 51 | 3.0 | 7.0 | 0.00 | 0.00 | 0.00 | 69 | 1018.1 |
| 20260508124006 | 59 | 55 | 2.0 | 3.0 | 0.00 | 0.00 | 0.00 | 68 | 1018.0 |
| 20260508123506 | 57 | 146 | 3.0 | 9.0 | 0.00 | 0.00 | 0.00 | 67 | 1018.0 |
| 20260508123005 | 58 | 172 | 6.0 | 9.0 | 0.00 | 0.00 | 0.00 | 68 | 1018.1 |
| 20260508122506 | 59 | 177 | 6.0 | 10.0 | 0.00 | 0.00 | 0.00 | 69 | 1018.1 |
| 20260508122006 | 58 | 157 | 3.0 | 7.0 | 0.00 | 0.00 | 0.00 | 68 | 1018.1 |
| 20260508121005 | 58 | 154 | 1.0 | 6.0 | 0.00 | 0.00 | 0.00 | 70 | 1018.2 |
| 20260508120506 | 58 | 71 | 2.0 | 5.0 | 0.00 | 0.00 | 0.00 | 68 | 1018.2 |
| 20260508120006 | 57 | 11 | 2.0 | 7.0 | 0.00 | 0.00 | 0.00 | 71 | 1018.3 |
| 20260508115505 | 58 | 101 | 5.0 | 8.0 | 0.00 | 0.00 | 0.00 | 72 | 1018.2 |
| 20260508115006 | 56 | 98 | 1.0 | 5.0 | 0.00 | 0.00 | 0.00 | 73 | 1018.2 |
| 20260508114505 | 56 | 101 | 2.0 | 8.0 | 0.00 | 0.00 | 0.00 | 71 | 1018.2 |
| 20260508114005 | 57 | 145 | 3.0 | 9.0 | 0.00 | 0.00 | 0.00 | 69 | 1018.2 |
| 20260508113506 | 57 | 89 | 3.0 | 6.0 | 0.00 | 0.00 | 0.00 | 72 | 1018.4 |
| 20260508113005 | 56 | 181 | 1.0 | 3.0 | 0.00 | 0.00 | 0.00 | 74 | 1018.5 |
| 20260508112505 | 55 | 163 | 2.0 | 7.0 | 0.00 | 0.00 | 0.00 | 72 | 1018.5 |
| 20260508112006 | 55 | 138 | 1.0 | 2.0 | 0.00 | 0.00 | 0.00 | 75 | 1018.5 |
| 20260508111506 | 54 | 78 | 1.0 | 3.0 | 0.00 | 0.00 | 0.00 | 75 | 1018.5 |
| 20260508111005 | 54 | 172 | 1.0 | 3.0 | 0.00 | 0.00 | 0.00 | 76 | 1018.5 |
| 20260508110505 | 53 | 60 | 2.0 | 5.0 | 0.00 | 0.00 | 0.00 | 77 | 1018.6 |
| 20260508110006 | 53 | 95 | 2.0 | 5.0 | 0.00 | 0.00 | 0.00 | 78 | 1018.6 |
| 20260508105505 | 53 | 50 | 2.0 | 3.0 | 0.00 | 0.00 | 0.00 | 77 | 1018.6 |
| 20260508105006 | 53 | 95 | 3.0 | 6.0 | 0.00 | 0.00 | 0.00 | 78 | 1018.7 |
| 20260508104507 | 53 | 82 | 3.0 | 7.0 | 0.00 | 0.00 | 0.00 | 79 | 1018.7 |
| 20260508104006 | 52 | 45 | 3.0 | 3.0 | 0.00 | 0.00 | 0.00 | 79 | 1018.7 |
| 20260508103505 | 52 | 64 | 3.0 | 5.0 | 0.00 | 0.00 | 0.00 | 80 | 1018.6 |
| 20260508103006 | 53 | 77 | 3.0 | 5.0 | 0.00 | 0.00 | 0.00 | 81 | 1018.7 |
| 20260508102506 | 52 | 47 | 3.0 | 5.0 | 0.00 | 0.00 | 0.00 | 81 | 1018.7 |
| 20260508102006 | 52 | 56 | 3.0 | 6.0 | 0.00 | 0.00 | 0.00 | 81 | 1018.7 |
| 20260508101506 | 51 | 88 | 3.0 | 7.0 | 0.00 | 0.00 | 0.00 | 81 | 1018.8 |
| 20260508101006 | 51 | 50 | 2.0 | 6.0 | 0.00 | 0.00 | 0.00 | 82 | 1018.7 |
| 20260508100507 | 51 | 71 | 3.0 | 6.0 | 0.00 | 0.00 | 0.00 | 82 | 1018.7 |
| 20260508100006 | 51 | 93 | 3.0 | 3.0 | 0.00 | 0.00 | 0.00 | 81 | 1018.8 |
| 20260508095505 | 51 | 74 | 3.0 | 3.0 | 0.00 | 0.00 | 0.00 | 84 | 1018.7 |
| 20260508094506 | 50 | 98 | 2.0 | 5.0 | 0.00 | 0.00 | 0.00 | 83 | 1018.8 |
| 20260508094005 | 50 | 58 | 3.0 | 6.0 | 0.00 | 0.00 | 0.00 | 83 | 1018.8 |
| 20260508093506 | 49 | 71 | 5.0 | 9.0 | 0.00 | 0.00 | 0.00 | 85 | 1018.9 |
| 20260508093006 | 49 | 65 | 6.0 | 10.0 | 0.00 | 0.00 | 0.00 | 86 | 1018.9 |
| 20260508092505 | 49 | 79 | 2.0 | 7.0 | 0.00 | 0.00 | 0.00 | 86 | 1019.0 |
| 20260508092006 | 49 | 62 | 3.0 | 7.0 | 0.00 | 0.00 | 0.00 | 86 | 1018.9 |
| 20260508091506 | 49 | 43 | 5.0 | 7.0 | 0.00 | 0.00 | 0.00 | 87 | 1018.9 |
| 20260508090505 | 48 | 170 | 5.0 | 7.0 | 0.00 | 0.00 | 0.00 | 87 | 1018.9 |
| 20260508090006 | 48 | 92 | 5.0 | 8.0 | 0.00 | 0.00 | 0.00 | 87 | 1018.8 |
| 20260508085506 | 48 | 125 | 4.0 | 8.0 | 0.00 | 0.00 | 0.00 | 87 | 1018.8 |
| 20260508085006 | 49 | 109 | 3.0 | 7.0 | 0.00 | 0.00 | 0.00 | 87 | 1018.9 |
| 20260508084505 | 48 | 50 | 2.0 | 8.0 | 0.00 | 0.00 | 0.00 | 88 | 1018.8 |
| 20260508084008 | 48 | 61 | 3.0 | 8.0 | 0.00 | 0.00 | 0.00 | 89 | 1018.9 |
| 20260508083505 | 48 | 107 | 3.0 | 7.0 | 0.00 | 0.00 | 0.00 | 89 | 1018.8 |
| 20260508082505 | 48 | 83 | 2.0 | 9.0 | 0.00 | 0.00 | 0.00 | 91 | 1018.7 |
| 20260508082006 | 47 | 87 | 2.0 | 6.0 | 0.00 | 0.00 | 0.00 | 91 | 1018.8 |
| 20260508081005 | 47 | 66 | 3.0 | 6.0 | 0.00 | 0.00 | 0.00 | 92 | 1018.7 |
| 20260508080505 | 47 | 64 | 3.0 | 6.0 | 0.00 | 0.00 | 0.00 | 93 | 1018.7 |
| 20260508080007 | 46 | 143 | 2.0 | 3.0 | 0.00 | 0.00 | 0.00 | 93 | 1018.7 |
| 20260508075506 | 46 | 97 | 3.0 | 6.0 | 0.00 | 0.00 | 0.00 | 93 | 1018.7 |
| 20260508075006 | 46 | 128 | 3.0 | 6.0 | 0.00 | 0.00 | 0.00 | 93 | 1018.6 |
| 20260508074505 | 46 | 94 | 1.0 | 6.0 | 0.00 | 0.00 | 0.00 | 93 | 1018.7 |
| 20260508074006 | 46 | 113 | 1.0 | 6.0 | 0.00 | 0.00 | 0.00 | 93 | 1018.7 |
| 20260508072509 | 46 | 94 | 1.0 | 5.0 | 0.00 | 0.00 | 0.00 | 93 | 1018.8 |
| 20260508072006 | 46 | 74 | 2.0 | 3.0 | 0.00 | 0.00 | 0.00 | 93 | 1018.8 |
| 20260508071506 | 46 | 81 | 2.0 | 6.0 | 0.00 | 0.00 | 0.00 | 93 | 1018.8 |
| 20260508070506 | 45 | 62 | 2.0 | 5.0 | 0.00 | 0.00 | 0.00 | 93 | 1018.8 |
| 20260508070006 | 45 | 26 | 2.0 | 5.0 | 0.00 | 0.00 | 0.00 | 93 | 1018.6 |
| 20260508065506 | 45 | 82 | 2.0 | 6.0 | 0.00 | 0.00 | 0.00 | 93 | 1018.7 |
| 20260508064505 | 45 | 88 | 2.0 | 3.0 | 0.00 | 0.01 | 0.00 | 93 | 1018.5 |
| 20260508064006 | 45 | 163 | 1.0 | 3.0 | 0.00 | 0.01 | 0.00 | 93 | 1018.6 |
| 20260508063506 | 44 | 164 | 1.0 | 2.0 | 0.00 | 0.01 | 0.00 | 93 | 1018.5 |
| 20260508063005 | 44 | 154 | 2.0 | 3.0 | 0.00 | 0.02 | 0.00 | 93 | 1018.4 |
| 20260508061505 | 44 | 142 | 2.0 | 6.0 | 0.00 | 0.02 | 0.00 | 93 | 1018.2 |
| 20260508061006 | 44 | 94 | 2.0 | 3.0 | 0.00 | 0.02 | 0.00 | 93 | 1018.2 |
| 20260508060505 | 43 | 143 | 1.0 | 3.0 | 0.00 | 0.03 | 0.00 | 93 | 1018.2 |
| 20260508060005 | 43 | 171 | 3.0 | 6.0 | 0.00 | 0.04 | 0.00 | 93 | 1018.1 |
| 20260508055506 | 43 | 174 | 3.0 | 6.0 | 0.00 | 0.04 | 0.00 | 93 | 1018.1 |
| 20260508055005 | 44 | 174 | 2.0 | 6.0 | 0.00 | 0.04 | 0.00 | 93 | 1018.0 |
| 20260508054006 | 43 | 156 | 1.0 | 3.0 | 0.00 | 0.05 | 0.00 | 93 | 1017.9 |
| 20260508053005 | 43 | 150 | 1.0 | 2.0 | 0.00 | 0.06 | 0.00 | 93 | 1017.9 |
| 20260508052506 | 43 | 102 | 1.0 | 1.0 | 0.00 | 0.06 | 0.00 | 93 | 1017.8 |
| 20260508052005 | 43 | 102 | 1.0 | 3.0 | 0.00 | 0.06 | 0.00 | 93 | 1017.8 |
| 20260508051006 | 43 | 178 | 0.0 | 2.0 | 0.00 | 0.06 | 0.00 | 92 | 1017.8 |
| 20260508050506 | 43 | 178 | 0.0 | 1.0 | 0.00 | 0.06 | 0.00 | 92 | 1017.7 |
| 20260508050006 | 42 | 178 | 0.0 | 2.0 | 0.00 | 0.06 | 0.00 | 92 | 1017.7 |
| 20260508045505 | 42 | 178 | 0.0 | 2.0 | 0.00 | 0.06 | 0.00 | 93 | 1017.6 |
| 20260508045005 | 42 | 177 | 1.0 | 3.0 | 0.00 | 0.06 | 0.00 | 92 | 1017.6 |
| 20260508044506 | 42 | 175 | 1.0 | 2.0 | 0.00 | 0.06 | 0.00 | 92 | 1017.6 |
| 20260508044005 | 42 | 175 | 1.0 | 2.0 | 0.00 | 0.06 | 0.00 | 92 | 1017.6 |
| 20260508043505 | 42 | 173 | 1.0 | 3.0 | 0.00 | 0.07 | 0.00 | 92 | 1017.6 |
| 20260508043006 | 42 | 120 | 1.0 | 2.0 | 0.00 | 0.07 | 0.00 | 92 | 1017.4 |
| 20260508042505 | 42 | 94 | 1.0 | 2.0 | 0.00 | 0.07 | 0.00 | 92 | 1017.4 |
| 20260508042006 | 42 | 94 | 0.0 | 2.0 | 0.00 | 0.07 | 0.00 | 92 | 1017.4 |
| 20260508041508 | 42 | 94 | 0.0 | 2.0 | 0.00 | 0.07 | 0.00 | 92 | 1017.5 |
| 20260508041005 | 42 | 93 | 1.0 | 2.0 | 0.00 | 0.07 | 0.00 | 92 | 1017.6 |
| 20260508040006 | 42 | 44 | 0.0 | 0.0 | 0.00 | 0.08 | 0.00 | 92 | 1017.6 |
| 20260508035505 | 42 | 44 | 0.0 | 0.0 | 0.00 | 0.08 | 0.00 | 92 | 1017.6 |
| 20260508035005 | 42 | 44 | 0.0 | 1.0 | 0.00 | 0.08 | 0.00 | 92 | 1017.4 |
| 20260508034506 | 42 | 44 | 0.0 | 2.0 | 0.00 | 0.08 | 0.00 | 92 | 1017.3 |
| 20260508034005 | 42 | 44 | 1.0 | 1.0 | 0.00 | 0.09 | 0.00 | 92 | 1017.2 |
| 20260508033505 | 42 | 44 | 0.0 | 1.0 | 0.00 | 0.09 | 0.00 | 92 | 1017.2 |
| 20260508032505 | 43 | 44 | 0.0 | 1.0 | 0.00 | 0.09 | 0.00 | 92 | 1017.2 |
| 20260508032006 | 43 | 44 | 0.0 | 0.0 | 0.00 | 0.09 | 0.00 | 92 | 1017.2 |
| 20260508031505 | 43 | 44 | 0.0 | 1.0 | 0.00 | 0.09 | 0.00 | 92 | 1017.2 |
| 20260508030505 | 43 | 44 | 0.0 | 1.0 | 0.00 | 0.09 | 0.00 | 92 | 1017.1 |
| 20260508030006 | 43 | 44 | 0.0 | 0.0 | 0.00 | 0.09 | 0.00 | 92 | 1017.2 |
| 20260508025506 | 43 | 44 | 0.0 | 0.0 | 0.00 | 0.09 | 0.00 | 92 | 1017.2 |
| 20260508025006 | 43 | 44 | 0.0 | 2.0 | 0.00 | 0.10 | 0.00 | 92 | 1017.1 |
| 20260508024006 | 43 | 44 | 0.0 | 2.0 | 0.00 | 0.11 | 0.00 | 92 | 1017.1 |
| 20260508023505 | 43 | 44 | 0.0 | 2.0 | 0.00 | 0.11 | 0.00 | 92 | 1017.2 |
| 20260508023005 | 43 | 44 | 0.0 | 2.0 | 0.00 | 0.12 | 0.00 | 92 | 1017.3 |
| 20260508022506 | 43 | 44 | 0.0 | 0.0 | 0.00 | 0.13 | 0.00 | 92 | 1017.2 |
| 20260508022005 | 43 | 44 | 0.0 | 2.0 | 0.00 | 0.13 | 0.00 | 92 | 1017.2 |
| 20260508021506 | 43 | 44 | 0.0 | 1.0 | 0.00 | 0.14 | 0.00 | 92 | 1017.2 |
| 20260508021005 | 43 | 44 | 0.0 | 2.0 | 0.00 | 0.15 | 0.00 | 92 | 1017.2 |
| 20260508020506 | 43 | 44 | 0.0 | 1.0 | 0.00 | 0.15 | 0.00 | 92 | 1017.2 |
| 20260508020007 | 44 | 44 | 0.0 | 2.0 | 0.00 | 0.16 | 0.00 | 92 | 1017.2 |
| 20260508015505 | 44 | 44 | 0.0 | 1.0 | 0.00 | 0.16 | 0.00 | 92 | 1017.2 |
| 20260508015006 | 44 | 44 | 0.0 | 0.0 | 0.00 | 0.16 | 0.00 | 92 | 1017.2 |
| 20260508014505 | 44 | 44 | 0.0 | 0.0 | 0.00 | 0.16 | 0.00 | 92 | 1017.2 |
| 20260508014006 | 44 | 44 | 0.0 | 0.0 | 0.00 | 0.16 | 0.00 | 92 | 1017.3 |
| 20260508013505 | 44 | 44 | 0.0 | 0.0 | 0.00 | 0.16 | 0.00 | 92 | 1017.2 |
| 20260508013006 | 44 | 44 | 0.0 | 2.0 | 0.00 | 0.16 | 0.00 | 92 | 1017.2 |
| 20260508012505 | 44 | 44 | 0.0 | 1.0 | 0.00 | 0.16 | 0.00 | 92 | 1017.3 |
| 20260508012005 | 44 | 44 | 1.0 | 3.0 | 0.00 | 0.16 | 0.00 | 92 | 1017.2 |
| 20260508011005 | 44 | 5 | 0.0 | 0.0 | 0.00 | 0.16 | 0.00 | 92 | 1017.3 |
| 20260508010505 | 44 | 5 | 0.0 | 0.0 | 0.00 | 0.16 | 0.00 | 92 | 1017.2 |
| 20260508010006 | 44 | 5 | 1.0 | 2.0 | 0.00 | 0.16 | 0.00 | 92 | 1017.2 |
| 20260508005505 | 45 | 5 | 0.0 | 2.0 | 0.00 | 0.16 | 0.00 | 92 | 1017.2 |